createdAt,value
2018-05-21T00:00:18.515Z,53.6
2018-05-21T00:00:44.651Z,53.41
2018-05-21T00:01:10.795Z,53.31
2018-05-21T00:01:36.928Z,53.6
2018-05-21T00:02:03.077Z,52.55
2018-05-21T00:02:29.214Z,52.64
2018-05-21T00:02:55.372Z,52.64
2018-05-21T00:03:21.516Z,52.36
2018-05-21T00:03:47.659Z,52.83
2018-05-21T00:04:13.798Z,52.45
2018-05-21T00:04:39.960Z,52.64
2018-05-21T00:05:06.105Z,52.26
2018-05-21T00:05:32.266Z,52.74
2018-05-21T00:05:58.403Z,52.74
2018-05-21T00:06:24.576Z,52.74
2018-05-21T00:06:50.709Z,52.55
2018-05-21T00:07:16.851Z,52.74
2018-05-21T00:07:42.995Z,52.95
2018-05-21T00:08:09.130Z,52.83
2018-05-21T00:08:35.268Z,52.83
2018-05-21T00:09:01.464Z,52.64
2018-05-21T00:09:27.597Z,52.45
2018-05-21T00:09:53.732Z,52.74
2018-05-21T00:10:19.894Z,52.74
2018-05-21T00:10:46.038Z,52.83
2018-05-21T00:11:12.172Z,52.83
2018-05-21T00:11:38.319Z,52.55
2018-05-21T00:12:04.506Z,52.74
2018-05-21T00:12:30.642Z,52.83
2018-05-21T00:12:56.785Z,52.74
2018-05-21T00:13:22.920Z,52.74
2018-05-21T00:13:49.063Z,52.93
2018-05-21T00:14:15.224Z,52.74
2018-05-21T00:14:41.385Z,52.45
2018-05-21T00:15:07.527Z,52.74
2018-05-21T00:15:33.662Z,52.55
2018-05-21T00:15:59.846Z,52.93
2018-05-21T00:16:25.990Z,52.45
2018-05-21T00:16:52.161Z,52.93
2018-05-21T00:17:18.302Z,52.55
2018-05-21T00:17:44.441Z,52.45
2018-05-21T00:18:10.583Z,52.45
2018-05-21T00:18:36.718Z,52.93
2018-05-21T00:19:02.863Z,52.74
2018-05-21T00:19:28.995Z,52.74
2018-05-21T00:19:55.137Z,52.74
2018-05-21T00:20:21.310Z,52.74
2018-05-21T00:20:47.446Z,52.93
2018-05-21T00:21:13.611Z,52.83
2018-05-21T00:21:39.770Z,52.93
2018-05-21T00:22:05.916Z,52.93
2018-05-21T00:22:32.043Z,52.83
2018-05-21T00:22:58.189Z,52.64
2018-05-21T00:23:24.324Z,52.83
2018-05-21T00:23:50.493Z,52.83
2018-05-21T00:24:16.659Z,52.93
2018-05-21T00:24:42.801Z,52.64
2018-05-21T00:25:09.017Z,52.83
2018-05-21T00:25:35.080Z,52.74
2018-05-21T00:26:01.216Z,52.64
2018-05-21T00:26:27.385Z,52.45
2018-05-21T00:26:53.551Z,53.03
2018-05-21T00:27:19.692Z,53.03
2018-05-21T00:27:45.895Z,53.5
2018-05-21T00:28:12.018Z,52.83
2018-05-21T00:28:38.156Z,52.93
2018-05-21T00:29:04.313Z,52.83
2018-05-21T00:29:30.458Z,52.74
2018-05-21T00:29:56.596Z,52.93
2018-05-21T00:30:22.731Z,52.74
2018-05-21T00:30:48.873Z,52.64
2018-05-21T00:31:15.012Z,52.55
2018-05-21T00:31:41.143Z,53.03
2018-05-21T00:32:07.287Z,52.83
2018-05-21T00:32:33.425Z,52.64
2018-05-21T00:32:59.579Z,53.03
2018-05-21T00:33:25.720Z,53.12
2018-05-21T00:33:51.857Z,52.93
2018-05-21T00:34:17.996Z,52.83
2018-05-21T00:34:44.143Z,53.31
2018-05-21T00:35:10.294Z,53.5
2018-05-21T00:35:36.458Z,53.5
2018-05-21T00:36:02.625Z,53.6
2018-05-21T00:36:28.790Z,52.74
2018-05-21T00:36:54.951Z,52.74
2018-05-21T00:37:21.085Z,52.74
2018-05-21T00:37:47.230Z,52.74
2018-05-21T00:38:13.366Z,53.31
2018-05-21T00:38:39.507Z,53.6
2018-05-21T00:39:05.653Z,53.41
2018-05-21T00:39:31.787Z,53.22
2018-05-21T00:39:57.927Z,53.31
2018-05-21T00:40:24.071Z,52.93
2018-05-21T00:40:50.212Z,53.12
2018-05-21T00:41:16.365Z,53.41
2018-05-21T00:41:42.507Z,53.03
2018-05-21T00:42:08.643Z,53.12
2018-05-21T00:42:34.790Z,53.5
2018-05-21T00:43:00.931Z,53.5
2018-05-21T00:43:27.065Z,53.77
2018-05-21T00:43:53.294Z,53.19
2018-05-21T00:44:19.424Z,53.58
2018-05-21T00:44:45.558Z,53.67
2018-05-21T00:45:11.695Z,53.58
2018-05-21T00:45:37.834Z,53.48
2018-05-21T00:46:03.978Z,53.77
2018-05-21T00:46:30.118Z,53.67
2018-05-21T00:46:56.252Z,53.86
2018-05-21T00:47:22.451Z,53.96
2018-05-21T00:47:48.586Z,54.05
2018-05-21T00:48:14.724Z,53.96
2018-05-21T00:48:40.867Z,53.96
2018-05-21T00:49:07.005Z,54.63
2018-05-21T00:49:33.152Z,54.53
2018-05-21T00:49:59.291Z,54.72
2018-05-21T00:50:25.510Z,54.15
2018-05-21T00:50:51.569Z,54.15
2018-05-21T00:51:17.703Z,54.05
2018-05-21T00:51:43.837Z,53.67
2018-05-21T00:52:09.983Z,54.44
2018-05-21T00:52:36.173Z,54.63
2018-05-21T00:53:02.319Z,54.53
2018-05-21T00:53:28.482Z,54.72
2018-05-21T00:53:54.618Z,54.72
2018-05-21T00:54:20.764Z,54.53
2018-05-21T00:54:46.925Z,54.53
2018-05-21T00:55:13.064Z,54.44
2018-05-21T00:55:39.223Z,54.44
2018-05-21T00:56:05.366Z,54.63
2018-05-21T00:56:31.507Z,54.63
2018-05-21T00:56:57.645Z,54.44
2018-05-21T00:57:23.787Z,54.34
2018-05-21T00:57:49.925Z,54.22
2018-05-21T00:58:16.062Z,54.12
2018-05-21T00:58:42.201Z,54.5
2018-05-21T00:59:08.359Z,54.6
2018-05-21T00:59:34.523Z,54.5
2018-05-21T01:00:00.656Z,54.79
2018-05-21T01:00:26.798Z,54.91
2018-05-21T01:00:52.938Z,54.89
2018-05-21T01:01:19.131Z,54.6
2018-05-21T01:01:45.273Z,54.5
2018-05-21T01:02:11.406Z,54.89
2018-05-21T01:02:37.550Z,54.79
2018-05-21T01:03:03.710Z,55.46
2018-05-21T01:03:29.871Z,54.79
2018-05-21T01:03:56.031Z,54.89
2018-05-21T01:04:22.171Z,54.79
2018-05-21T01:04:48.341Z,54.89
2018-05-21T01:05:14.504Z,54.89
2018-05-21T01:05:40.636Z,55.18
2018-05-21T01:06:06.799Z,54.89
2018-05-21T01:06:32.933Z,54.99
2018-05-21T01:06:59.076Z,55.08
2018-05-21T01:07:25.212Z,55.08
2018-05-21T01:07:51.344Z,54.79
2018-05-21T01:08:17.492Z,55.18
2018-05-21T01:08:43.651Z,54.7
2018-05-21T01:09:09.803Z,54.7
2018-05-21T01:09:35.960Z,54.79
2018-05-21T01:10:02.120Z,54.7
2018-05-21T01:10:28.278Z,55.18
2018-05-21T01:10:54.444Z,54.89
2018-05-21T01:11:20.588Z,55.18
2018-05-21T01:11:46.748Z,55.08
2018-05-21T01:12:12.878Z,54.89
2018-05-21T01:12:39.017Z,55.18
2018-05-21T01:13:05.154Z,55.18
2018-05-21T01:13:31.344Z,55.08
2018-05-21T01:13:57.490Z,55.18
2018-05-21T01:14:23.624Z,54.99
2018-05-21T01:14:49.755Z,55.08
2018-05-21T01:15:15.900Z,55.08
2018-05-21T01:15:42.118Z,54.99
2018-05-21T01:16:08.220Z,55.08
2018-05-21T01:16:34.380Z,55.56
2018-05-21T01:17:00.524Z,55.65
2018-05-21T01:17:26.716Z,55.75
2018-05-21T01:17:52.852Z,55.36
2018-05-21T01:18:18.994Z,55.27
2018-05-21T01:18:45.123Z,54.89
2018-05-21T01:19:11.312Z,55.08
2018-05-21T01:19:37.443Z,54.99
2018-05-21T01:20:03.575Z,55.08
2018-05-21T01:20:29.712Z,54.89
2018-05-21T01:20:55.851Z,55.08
2018-05-21T01:21:21.988Z,54.79
2018-05-21T01:21:48.132Z,55.08
2018-05-21T01:22:14.291Z,55.18
2018-05-21T01:22:40.476Z,54.99
2018-05-21T01:23:06.615Z,55.18
2018-05-21T01:23:32.752Z,55.08
2018-05-21T01:23:58.889Z,55.08
2018-05-21T01:24:25.052Z,55.08
2018-05-21T01:24:51.190Z,54.89
2018-05-21T01:25:17.336Z,54.99
2018-05-21T01:25:43.503Z,55.08
2018-05-21T01:26:09.647Z,55.53
2018-05-21T01:26:35.782Z,54.86
2018-05-21T01:27:01.925Z,55.63
2018-05-21T01:27:28.065Z,55.24
2018-05-21T01:27:54.230Z,55.82
2018-05-21T01:28:20.366Z,55.63
2018-05-21T01:28:46.528Z,54.77
2018-05-21T01:29:12.672Z,55.63
2018-05-21T01:29:38.831Z,54.86
2018-05-21T01:30:04.971Z,55.44
2018-05-21T01:30:31.111Z,55.63
2018-05-21T01:30:57.253Z,55.63
2018-05-21T01:31:23.393Z,55.53
2018-05-21T01:31:49.532Z,55.34
2018-05-21T01:32:15.669Z,54.96
2018-05-21T01:32:41.811Z,55.63
2018-05-21T01:33:07.996Z,55.44
2018-05-21T01:33:34.134Z,55.44
2018-05-21T01:34:00.275Z,55.63
2018-05-21T01:34:26.476Z,55.63
2018-05-21T01:34:52.576Z,55.73
2018-05-21T01:35:18.738Z,55.73
2018-05-21T01:35:44.900Z,55.73
2018-05-21T01:36:11.066Z,55.34
2018-05-21T01:36:37.213Z,55.73
2018-05-21T01:37:03.365Z,55.63
2018-05-21T01:37:29.499Z,55.63
2018-05-21T01:37:55.663Z,55.63
2018-05-21T01:38:21.801Z,55.73
2018-05-21T01:38:47.941Z,55.73
2018-05-21T01:39:14.079Z,55.44
2018-05-21T01:39:40.218Z,55.53
2018-05-21T01:40:06.383Z,55.63
2018-05-21T01:40:32.523Z,55.34
2018-05-21T01:40:58.660Z,55.34
2018-05-21T01:41:24.796Z,55.34
2018-05-21T01:41:50.967Z,55.24
2018-05-21T01:42:17.098Z,55.05
2018-05-21T01:42:43.260Z,55.44
2018-05-21T01:43:09.398Z,54.86
2018-05-21T01:43:35.542Z,54.96
2018-05-21T01:44:01.681Z,55.34
2018-05-21T01:44:27.816Z,55.34
2018-05-21T01:44:53.988Z,55.15
2018-05-21T01:45:20.154Z,55.15
2018-05-21T01:45:46.295Z,54.96
2018-05-21T01:46:12.437Z,55.15
2018-05-21T01:46:38.597Z,55.15
2018-05-21T01:47:04.739Z,55.05
2018-05-21T01:47:30.878Z,54.86
2018-05-21T01:47:57.036Z,54.57
2018-05-21T01:48:23.212Z,55.34
2018-05-21T01:48:49.343Z,55.05
2018-05-21T01:49:15.487Z,54.28
2018-05-21T01:49:41.621Z,54.86
2018-05-21T01:50:07.760Z,54.86
2018-05-21T01:50:33.930Z,55.15
2018-05-21T01:51:00.072Z,55.15
2018-05-21T01:51:26.235Z,54.96
2018-05-21T01:51:52.374Z,55.24
2018-05-21T01:52:18.516Z,54.96
2018-05-21T01:52:44.656Z,55.34
2018-05-21T01:53:10.789Z,54.67
2018-05-21T01:53:36.928Z,55.05
2018-05-21T01:54:03.061Z,55.15
2018-05-21T01:54:29.205Z,54.96
2018-05-21T01:54:55.344Z,55.05
2018-05-21T01:55:21.480Z,55.63
2018-05-21T01:55:47.618Z,55.73
2018-05-21T01:56:13.769Z,55.63
2018-05-21T01:56:39.910Z,55.63
2018-05-21T01:57:06.053Z,55.53
2018-05-21T01:57:32.188Z,55.34
2018-05-21T01:57:58.337Z,55.63
2018-05-21T01:58:24.475Z,55.63
2018-05-21T01:58:50.618Z,55.73
2018-05-21T01:59:16.776Z,55.82
2018-05-21T01:59:42.914Z,55.73
2018-05-21T02:00:09.056Z,55.44
2018-05-21T02:00:35.195Z,55.44
2018-05-21T02:01:01.340Z,55.53
2018-05-21T02:01:27.502Z,55.44
2018-05-21T02:01:53.667Z,55.53
2018-05-21T02:02:19.799Z,55.44
2018-05-21T02:02:45.945Z,55.63
2018-05-21T02:03:12.083Z,55.44
2018-05-21T02:03:38.220Z,55.34
2018-05-21T02:04:04.406Z,55.34
2018-05-21T02:04:30.597Z,55.44
2018-05-21T02:04:56.732Z,55.44
2018-05-21T02:05:22.878Z,55.63
2018-05-21T02:05:49.012Z,55.44
2018-05-21T02:06:15.179Z,55.73
2018-05-21T02:06:41.331Z,55.53
2018-05-21T02:07:07.499Z,55.73
2018-05-21T02:07:33.635Z,55.63
2018-05-21T02:07:59.773Z,55.73
2018-05-21T02:08:25.983Z,55.53
2018-05-21T02:08:52.044Z,55.44
2018-05-21T02:09:18.188Z,55.73
2018-05-21T02:09:44.324Z,55.63
2018-05-21T02:10:10.464Z,55.73
2018-05-21T02:10:36.600Z,55.82
2018-05-21T02:11:02.741Z,55.91
2018-05-21T02:11:28.887Z,56.1
2018-05-21T02:11:55.051Z,55.44
2018-05-21T02:12:21.187Z,56.01
2018-05-21T02:12:47.327Z,55.73
2018-05-21T02:13:13.489Z,55.82
2018-05-21T02:13:39.628Z,55.91
2018-05-21T02:14:05.758Z,56.01
2018-05-21T02:14:31.899Z,55.91
2018-05-21T02:14:58.060Z,55.82
2018-05-21T02:15:24.205Z,55.44
2018-05-21T02:15:50.369Z,55.53
2018-05-21T02:16:16.505Z,55.53
2018-05-21T02:16:42.640Z,55.44
2018-05-21T02:17:08.806Z,55.91
2018-05-21T02:17:34.945Z,55.73
2018-05-21T02:18:01.088Z,55.91
2018-05-21T02:18:27.226Z,55.82
2018-05-21T02:18:53.378Z,55.73
2018-05-21T02:19:19.550Z,55.91
2018-05-21T02:19:45.729Z,56.01
2018-05-21T02:20:11.872Z,55.73
2018-05-21T02:20:38.041Z,56.01
2018-05-21T02:21:04.197Z,55.82
2018-05-21T02:21:30.336Z,55.6
2018-05-21T02:21:56.482Z,56.1
2018-05-21T02:22:22.613Z,56.1
2018-05-21T02:22:48.749Z,55.73
2018-05-21T02:23:14.915Z,55.73
2018-05-21T02:23:41.061Z,55.82
2018-05-21T02:24:07.201Z,56.2
2018-05-21T02:24:33.335Z,55.63
2018-05-21T02:24:59.512Z,55.98
2018-05-21T02:25:25.642Z,55.63
2018-05-21T02:25:51.781Z,55.98
2018-05-21T02:26:17.967Z,55.79
2018-05-21T02:26:44.118Z,55.98
2018-05-21T02:27:10.313Z,55.88
2018-05-21T02:27:36.479Z,55.98
2018-05-21T02:28:02.623Z,55.98
2018-05-21T02:28:28.758Z,56.08
2018-05-21T02:28:54.886Z,56.08
2018-05-21T02:29:21.035Z,56.17
2018-05-21T02:29:47.180Z,55.79
2018-05-21T02:30:13.333Z,55.98
2018-05-21T02:30:39.481Z,56.17
2018-05-21T02:31:05.636Z,56.08
2018-05-21T02:31:31.809Z,56.17
2018-05-21T02:31:57.975Z,56.46
2018-05-21T02:32:24.138Z,56.37
2018-05-21T02:32:50.277Z,56.37
2018-05-21T02:33:16.422Z,56.37
2018-05-21T02:33:42.601Z,56.37
2018-05-21T02:34:08.761Z,56.37
2018-05-21T02:34:34.962Z,56.37
2018-05-21T02:35:01.150Z,56.46
2018-05-21T02:35:27.320Z,56.46
2018-05-21T02:35:53.501Z,56.37
2018-05-21T02:36:19.761Z,56.08
2018-05-21T02:36:45.813Z,55.98
2018-05-21T02:37:11.985Z,56.17
2018-05-21T02:37:38.146Z,56.27
2018-05-21T02:38:04.307Z,56.37
2018-05-21T02:38:30.460Z,56.37
2018-05-21T02:38:56.595Z,56.37
2018-05-21T02:39:22.767Z,56.17
2018-05-21T02:39:48.922Z,56.27
2018-05-21T02:40:15.109Z,56.37
2018-05-21T02:40:41.249Z,56.46
2018-05-21T02:41:07.409Z,56.37
2018-05-21T02:41:33.575Z,56.27
2018-05-21T02:41:59.738Z,56.08
2018-05-21T02:42:25.920Z,56.01
2018-05-21T02:42:52.055Z,55.88
2018-05-21T02:43:18.224Z,55.6
2018-05-21T02:43:44.367Z,55.79
2018-05-21T02:44:10.533Z,55.69
2018-05-21T02:44:36.666Z,56.01
2018-05-21T02:45:02.801Z,55.73
2018-05-21T02:45:28.940Z,56.01
2018-05-21T02:45:55.074Z,56.01
2018-05-21T02:46:21.205Z,55.82
2018-05-21T02:46:47.366Z,56.01
2018-05-21T02:47:13.503Z,55.91
2018-05-21T02:47:39.645Z,56.01
2018-05-21T02:48:05.786Z,55.88
2018-05-21T02:48:31.931Z,56.1
2018-05-21T02:48:58.085Z,55.82
2018-05-21T02:49:24.227Z,56.08
2018-05-21T02:49:50.357Z,55.98
2018-05-21T02:50:16.524Z,56.01
2018-05-21T02:50:42.688Z,56.01
2018-05-21T02:51:08.851Z,55.82
2018-05-21T02:51:34.992Z,55.6
2018-05-21T02:52:01.134Z,55.79
2018-05-21T02:52:27.277Z,55.79
2018-05-21T02:52:53.409Z,55.88
2018-05-21T02:53:19.546Z,55.73
2018-05-21T02:53:45.682Z,55.6
2018-05-21T02:54:11.821Z,56.08
2018-05-21T02:54:37.962Z,55.51
2018-05-21T02:55:04.169Z,55.98
2018-05-21T02:55:30.315Z,55.98
2018-05-21T02:55:56.481Z,55.98
2018-05-21T02:56:22.664Z,55.51
2018-05-21T02:56:48.809Z,56.08
2018-05-21T02:57:14.968Z,56.08
2018-05-21T02:57:41.149Z,55.69
2018-05-21T02:58:07.294Z,56.08
2018-05-21T02:58:33.430Z,56.08
2018-05-21T02:58:59.604Z,56.01
2018-05-21T02:59:25.749Z,55.34
2018-05-21T02:59:51.873Z,55.53
2018-05-21T03:00:18.036Z,55.79
2018-05-21T03:00:44.174Z,56.01
2018-05-21T03:01:10.305Z,55.79
2018-05-21T03:01:36.448Z,55.91
2018-05-21T03:02:02.690Z,55.6
2018-05-21T03:02:28.929Z,56.1
2018-05-21T03:02:55.260Z,56.1
2018-05-21T03:03:21.498Z,56.08
2018-05-21T03:03:47.894Z,56.08
2018-05-21T03:04:14.167Z,55.88
2018-05-21T03:04:40.312Z,55.98
2018-05-21T03:05:06.450Z,56.08
2018-05-21T03:05:32.619Z,56.37
2018-05-21T03:05:58.785Z,56.46
2018-05-21T03:06:24.926Z,56.46
2018-05-21T03:06:51.110Z,56.27
2018-05-21T03:07:17.248Z,56.46
2018-05-21T03:07:43.396Z,56.94
2018-05-21T03:08:09.554Z,56.94
2018-05-21T03:08:35.697Z,56.94
2018-05-21T03:09:01.834Z,56.94
2018-05-21T03:09:27.995Z,56.65
2018-05-21T03:09:54.159Z,56.75
2018-05-21T03:10:20.316Z,56.75
2018-05-21T03:10:46.451Z,56.46
2018-05-21T03:11:12.593Z,56.56
2018-05-21T03:11:38.737Z,56.37
2018-05-21T03:12:04.879Z,56.27
2018-05-21T03:12:31.014Z,56.37
2018-05-21T03:12:57.152Z,56.84
2018-05-21T03:13:23.295Z,56.84
2018-05-21T03:13:49.427Z,57.04
2018-05-21T03:14:15.568Z,57.23
2018-05-21T03:14:41.739Z,57.23
2018-05-21T03:15:07.867Z,57.42
2018-05-21T03:15:34.014Z,57.7
2018-05-21T03:16:00.158Z,57.7
2018-05-21T03:16:26.305Z,57.7
2018-05-21T03:16:52.432Z,57.51
2018-05-21T03:17:18.580Z,57.51
2018-05-21T03:17:44.724Z,57.7
2018-05-21T03:18:10.857Z,57.51
2018-05-21T03:18:36.998Z,57.61
2018-05-21T03:19:03.134Z,57.7
2018-05-21T03:19:29.298Z,56.94
2018-05-21T03:19:55.431Z,57.32
2018-05-21T03:20:21.572Z,57.13
2018-05-21T03:20:47.709Z,58.09
2018-05-21T03:21:13.856Z,57.51
2018-05-21T03:21:39.987Z,57.51
2018-05-21T03:22:06.128Z,57.9
2018-05-21T03:22:32.265Z,57.9
2018-05-21T03:22:58.399Z,57.61
2018-05-21T03:23:24.543Z,57.51
2018-05-21T03:23:50.714Z,57.99
2018-05-21T03:24:16.879Z,57.77
2018-05-21T03:24:43.016Z,57.7
2018-05-21T03:25:09.160Z,57.51
2018-05-21T03:25:35.297Z,57.7
2018-05-21T03:26:01.447Z,57.48
2018-05-21T03:26:27.607Z,57.58
2018-05-21T03:26:53.747Z,57.48
2018-05-21T03:27:19.890Z,57.39
2018-05-21T03:27:46.021Z,57.61
2018-05-21T03:28:12.165Z,57.48
2018-05-21T03:28:38.331Z,57.68
2018-05-21T03:29:04.488Z,57.7
2018-05-21T03:29:30.625Z,57.7
2018-05-21T03:29:56.765Z,57.8
2018-05-21T03:30:22.898Z,57.8
2018-05-21T03:30:49.108Z,57.58
2018-05-21T03:31:15.276Z,57.68
2018-05-21T03:31:41.443Z,57.39
2018-05-21T03:32:07.594Z,57.68
2018-05-21T03:32:33.733Z,57.48
2018-05-21T03:32:59.871Z,57.51
2018-05-21T03:33:26.035Z,57.48
2018-05-21T03:33:52.200Z,57.61
2018-05-21T03:34:18.349Z,57.7
2018-05-21T03:34:44.510Z,57.51
2018-05-21T03:35:10.677Z,57.51
2018-05-21T03:35:36.838Z,57.61
2018-05-21T03:36:02.986Z,57.42
2018-05-21T03:36:29.115Z,57.48
2018-05-21T03:36:55.259Z,57.48
2018-05-21T03:37:21.420Z,57.58
2018-05-21T03:37:47.562Z,57.87
2018-05-21T03:38:13.704Z,57.99
2018-05-21T03:38:39.847Z,57.97
2018-05-21T03:39:05.977Z,57.99
2018-05-21T03:39:32.122Z,57.97
2018-05-21T03:39:58.280Z,58.34
2018-05-21T03:40:24.441Z,58.25
2018-05-21T03:40:50.628Z,58.34
2018-05-21T03:41:16.771Z,58.34
2018-05-21T03:41:42.905Z,58.06
2018-05-21T03:42:09.067Z,58.06
2018-05-21T03:42:35.204Z,58.15
2018-05-21T03:43:01.367Z,58.15
2018-05-21T03:43:27.505Z,58.06
2018-05-21T03:43:53.689Z,58.25
2018-05-21T03:44:19.827Z,58.15
2018-05-21T03:44:45.968Z,58.34
2018-05-21T03:45:12.176Z,58.15
2018-05-21T03:45:38.350Z,58.15
2018-05-21T03:46:04.493Z,58.09
2018-05-21T03:46:30.663Z,58.15
2018-05-21T03:46:56.798Z,58.15
2018-05-21T03:47:22.935Z,57.99
2018-05-21T03:47:49.073Z,57.99
2018-05-21T03:48:15.215Z,58.34
2018-05-21T03:48:41.350Z,58.25
2018-05-21T03:49:07.493Z,58.15
2018-05-21T03:49:33.634Z,58.06
2018-05-21T03:49:59.780Z,58.28
2018-05-21T03:50:25.941Z,58.09
2018-05-21T03:50:52.104Z,57.51
2018-05-21T03:51:18.240Z,57.99
2018-05-21T03:51:44.384Z,58.28
2018-05-21T03:52:10.521Z,58.18
2018-05-21T03:52:36.684Z,58.28
2018-05-21T03:53:02.845Z,57.99
2018-05-21T03:53:28.999Z,58.18
2018-05-21T03:53:55.131Z,58.66
2018-05-21T03:54:21.268Z,58.66
2018-05-21T03:54:47.406Z,58.28
2018-05-21T03:55:13.544Z,57.7
2018-05-21T03:55:39.688Z,57.51
2018-05-21T03:56:05.823Z,57.7
2018-05-21T03:56:31.956Z,57.42
2018-05-21T03:56:58.114Z,57.61
2018-05-21T03:57:24.260Z,57.99
2018-05-21T03:57:50.394Z,57.7
2018-05-21T03:58:16.537Z,57.51
2018-05-21T03:58:42.673Z,57.8
2018-05-21T03:59:08.815Z,57.61
2018-05-21T03:59:34.962Z,57.7
2018-05-21T04:00:01.093Z,57.7
2018-05-21T04:00:27.250Z,57.7
2018-05-21T04:00:53.423Z,57.61
2018-05-21T04:01:19.623Z,57.7
2018-05-21T04:01:45.762Z,57.61
2018-05-21T04:02:11.905Z,57.61
2018-05-21T04:02:38.044Z,57.61
2018-05-21T04:03:04.177Z,57.7
2018-05-21T04:03:30.319Z,57.7
2018-05-21T04:03:56.459Z,57.9
2018-05-21T04:04:22.593Z,58.09
2018-05-21T04:04:48.731Z,57.61
2018-05-21T04:05:14.897Z,57.7
2018-05-21T04:05:41.034Z,57.51
2018-05-21T04:06:07.173Z,57.7
2018-05-21T04:06:33.313Z,57.8
2018-05-21T04:06:59.478Z,57.61
2018-05-21T04:07:25.650Z,57.61
2018-05-21T04:07:51.783Z,57.51
2018-05-21T04:08:17.917Z,57.7
2018-05-21T04:08:44.057Z,57.51
2018-05-21T04:09:10.217Z,57.8
2018-05-21T04:09:36.379Z,57.7
2018-05-21T04:10:02.536Z,57.61
2018-05-21T04:10:28.701Z,57.7
2018-05-21T04:10:54.835Z,57.9
2018-05-21T04:11:21.008Z,57.61
2018-05-21T04:11:47.140Z,57.61
2018-05-21T04:12:13.278Z,57.7
2018-05-21T04:12:39.414Z,57.8
2018-05-21T04:13:05.582Z,57.8
2018-05-21T04:13:31.738Z,57.8
2018-05-21T04:13:57.880Z,57.7
2018-05-21T04:14:24.024Z,57.99
2018-05-21T04:14:50.157Z,57.9
2018-05-21T04:15:16.324Z,57.61
2018-05-21T04:15:42.462Z,57.7
2018-05-21T04:16:08.596Z,57.61
2018-05-21T04:16:34.753Z,57.7
2018-05-21T04:17:00.888Z,57.8
2018-05-21T04:17:27.022Z,57.8
2018-05-21T04:17:53.187Z,57.8
2018-05-21T04:18:19.331Z,57.7
2018-05-21T04:18:45.506Z,57.61
2018-05-21T04:19:11.658Z,57.7
2018-05-21T04:19:37.794Z,57.61
2018-05-21T04:20:03.937Z,57.9
2018-05-21T04:20:30.082Z,57.8
2018-05-21T04:20:56.251Z,57.9
2018-05-21T04:21:22.389Z,57.61
2018-05-21T04:21:48.522Z,57.7
2018-05-21T04:22:14.657Z,57.42
2018-05-21T04:22:40.833Z,57.42
2018-05-21T04:23:06.970Z,57.51
2018-05-21T04:23:33.103Z,57.51
2018-05-21T04:23:59.248Z,57.42
2018-05-21T04:24:25.524Z,57.61
2018-05-21T04:24:51.594Z,57.8
2018-05-21T04:25:17.751Z,57.61
2018-05-21T04:25:43.916Z,57.7
2018-05-21T04:26:10.054Z,57.51
2018-05-21T04:26:36.200Z,58.09
2018-05-21T04:27:02.333Z,57.99
2018-05-21T04:27:28.469Z,57.83
2018-05-21T04:27:54.609Z,57.99
2018-05-21T04:28:20.756Z,58.12
2018-05-21T04:28:46.917Z,57.26
2018-05-21T04:29:13.051Z,57.9
2018-05-21T04:29:39.216Z,57.7
2018-05-21T04:30:05.352Z,57.8
2018-05-21T04:30:31.514Z,57.64
2018-05-21T04:30:57.658Z,57.54
2018-05-21T04:31:23.800Z,58.02
2018-05-21T04:31:49.969Z,57.99
2018-05-21T04:32:16.107Z,57.35
2018-05-21T04:32:42.251Z,57.8
2018-05-21T04:33:08.391Z,57.73
2018-05-21T04:33:34.525Z,57.73
2018-05-21T04:34:00.664Z,57.54
2018-05-21T04:34:26.806Z,57.64
2018-05-21T04:34:52.975Z,58.02
2018-05-21T04:35:19.121Z,58.02
2018-05-21T04:35:45.248Z,58.02
2018-05-21T04:36:11.435Z,58.02
2018-05-21T04:36:37.572Z,57.83
2018-05-21T04:37:03.720Z,57.8
2018-05-21T04:37:29.854Z,57.83
2018-05-21T04:37:56.000Z,57.83
2018-05-21T04:38:22.130Z,57.73
2018-05-21T04:38:48.268Z,57.45
2018-05-21T04:39:14.406Z,58.02
2018-05-21T04:39:40.547Z,58.02
2018-05-21T04:40:06.686Z,57.92
2018-05-21T04:40:32.823Z,57.73
2018-05-21T04:40:58.961Z,58.12
2018-05-21T04:41:25.104Z,57.64
2018-05-21T04:41:51.237Z,57.54
2018-05-21T04:42:17.377Z,57.92
2018-05-21T04:42:43.511Z,57.83
2018-05-21T04:43:09.641Z,57.54
2018-05-21T04:43:35.832Z,57.92
2018-05-21T04:44:01.965Z,58.02
2018-05-21T04:44:28.104Z,57.16
2018-05-21T04:44:54.241Z,58.12
2018-05-21T04:45:20.378Z,57.83
2018-05-21T04:45:46.519Z,57.73
2018-05-21T04:46:12.662Z,57.64
2018-05-21T04:46:38.794Z,57.54
2018-05-21T04:47:04.935Z,57.54
2018-05-21T04:47:31.079Z,57.54
2018-05-21T04:47:57.212Z,57.73
2018-05-21T04:48:23.347Z,57.73
2018-05-21T04:48:49.483Z,57.73
2018-05-21T04:49:15.630Z,57.45
2018-05-21T04:49:41.770Z,57.54
2018-05-21T04:50:07.939Z,57.73
2018-05-21T04:50:34.075Z,57.06
2018-05-21T04:51:00.208Z,57.45
2018-05-21T04:51:26.352Z,56.99
2018-05-21T04:51:52.496Z,57.28
2018-05-21T04:52:18.640Z,56.9
2018-05-21T04:52:44.776Z,56.81
2018-05-21T04:53:10.966Z,56.61
2018-05-21T04:53:37.060Z,56.52
2018-05-21T04:54:03.200Z,56.71
2018-05-21T04:54:29.363Z,56.81
2018-05-21T04:54:55.533Z,56.52
2018-05-21T04:55:21.672Z,56.42
2018-05-21T04:55:47.813Z,56.52
2018-05-21T04:56:13.944Z,56.52
2018-05-21T04:56:40.090Z,56.52
2018-05-21T04:57:06.220Z,56.32
2018-05-21T04:57:32.360Z,56.42
2018-05-21T04:57:58.511Z,56.42
2018-05-21T04:58:24.656Z,56.42
2018-05-21T04:58:50.797Z,56.42
2018-05-21T04:59:16.932Z,56.42
2018-05-21T04:59:43.067Z,56.52
2018-05-21T05:00:09.211Z,56.52
2018-05-21T05:00:35.351Z,56.42
2018-05-21T05:01:01.518Z,56.42
2018-05-21T05:01:27.688Z,56.32
2018-05-21T05:01:53.828Z,56.52
2018-05-21T05:02:19.969Z,56.99
2018-05-21T05:02:46.105Z,56.61
2018-05-21T05:03:12.275Z,56.9
2018-05-21T05:03:38.431Z,56.9
2018-05-21T05:04:04.567Z,56.81
2018-05-21T05:04:30.706Z,56.71
2018-05-21T05:04:56.845Z,56.9
2018-05-21T05:05:22.997Z,56.52
2018-05-21T05:05:49.156Z,56.81
2018-05-21T05:06:15.290Z,56.52
2018-05-21T05:06:41.430Z,56.71
2018-05-21T05:07:07.597Z,56.81
2018-05-21T05:07:33.755Z,56.81
2018-05-21T05:07:59.898Z,56.81
2018-05-21T05:08:26.055Z,56.9
2018-05-21T05:08:52.198Z,56.99
2018-05-21T05:09:18.365Z,56.99
2018-05-21T05:09:44.496Z,56.9
2018-05-21T05:10:10.629Z,57.28
2018-05-21T05:10:36.776Z,57.09
2018-05-21T05:11:02.908Z,57.38
2018-05-21T05:11:29.052Z,56.99
2018-05-21T05:11:55.197Z,57.28
2018-05-21T05:12:21.330Z,57.28
2018-05-21T05:12:47.471Z,57.28
2018-05-21T05:13:13.609Z,57.21
2018-05-21T05:13:39.738Z,57.12
2018-05-21T05:14:05.900Z,56.83
2018-05-21T05:14:32.034Z,56.83
2018-05-21T05:14:58.184Z,56.54
2018-05-21T05:15:24.323Z,56.93
2018-05-21T05:15:50.459Z,56.45
2018-05-21T05:16:16.595Z,56.45
2018-05-21T05:16:42.761Z,56.35
2018-05-21T05:17:08.926Z,56.35
2018-05-21T05:17:35.084Z,56.45
2018-05-21T05:18:01.223Z,57.03
2018-05-21T05:18:27.387Z,56.83
2018-05-21T05:18:53.530Z,56.83
2018-05-21T05:19:19.691Z,57.03
2018-05-21T05:19:45.840Z,56.93
2018-05-21T05:20:11.999Z,56.74
2018-05-21T05:20:38.177Z,56.74
2018-05-21T05:21:04.415Z,56.83
2018-05-21T05:21:30.460Z,56.54
2018-05-21T05:21:56.606Z,56.93
2018-05-21T05:22:22.768Z,56.83
2018-05-21T05:22:48.905Z,56.74
2018-05-21T05:23:15.042Z,56.83
2018-05-21T05:23:41.185Z,56.35
2018-05-21T05:24:07.378Z,56.93
2018-05-21T05:24:33.513Z,57.21
2018-05-21T05:24:59.675Z,57.31
2018-05-21T05:25:25.813Z,57.31
2018-05-21T05:25:51.986Z,57.03
2018-05-21T05:26:18.119Z,57.12
2018-05-21T05:26:44.350Z,57.31
2018-05-21T05:27:10.419Z,57.79
2018-05-21T05:27:36.572Z,57.41
2018-05-21T05:28:02.710Z,57.12
2018-05-21T05:28:28.855Z,57.31
2018-05-21T05:28:54.988Z,57.03
2018-05-21T05:29:21.152Z,57.21
2018-05-21T05:29:47.297Z,57.21
2018-05-21T05:30:13.468Z,56.93
2018-05-21T05:30:39.605Z,57.03
2018-05-21T05:31:05.742Z,57.21
2018-05-21T05:31:31.874Z,57.03
2018-05-21T05:31:58.017Z,57.31
2018-05-21T05:32:24.159Z,57.24
2018-05-21T05:32:50.300Z,57.03
2018-05-21T05:33:16.444Z,57.24
2018-05-21T05:33:42.581Z,56.96
2018-05-21T05:34:08.721Z,56.74
2018-05-21T05:34:34.859Z,56.83
2018-05-21T05:35:01.002Z,57.15
2018-05-21T05:35:27.140Z,57.24
2018-05-21T05:35:53.330Z,56.86
2018-05-21T05:36:19.429Z,57.34
2018-05-21T05:36:45.570Z,57.82
2018-05-21T05:37:11.749Z,57.43
2018-05-21T05:37:37.896Z,57.43
2018-05-21T05:38:04.041Z,57.43